Time;durP1;ratioP1;P1;durP2;ratioP2;P2;SDS_P1;SDS_P2;PMS_P1;PMS_P2;Temp;Humidity;BMP_temperature;BMP_pressure;BME280_temperature;BME280_humidity;BME280_pressure;Samples;Min_cycle;Max_cycle;Signal;HPM_P1;HPM_P2
2022/11/12 00:00:46;;;;;;;1.93;0.60;;;;;;;;;;6173230;23;20863;-46
2022/11/12 00:03:12;;;;;;;2.05;0.70;;;;;;;;;;6186642;23;20017;-47
2022/11/12 00:05:40;;;;;;;3.53;0.90;;;;;;;;;;6180559;23;20017;-47
2022/11/12 00:08:09;;;;;;;4.13;1.30;;;;;;;;;;6184029;23;20012;-44
2022/11/12 00:10:36;;;;;;;2.20;0.70;;;;;;;;;;6177194;23;20020;-49
2022/11/12 00:13:02;;;;;;;2.93;1.00;;;;;;;;;;6181662;23;20378;-46
2022/11/12 00:15:29;;;;;;;2.90;0.88;;;;;;;;;;6141619;23;20016;-46
2022/11/12 00:17:56;;;;;;;3.13;1.00;;;;;;;;;;6183023;23;20066;-45
2022/11/12 00:20:22;;;;;;;2.33;0.60;;;;;;;;;;6183367;23;20016;-45
2022/11/12 00:22:51;;;;;;;3.30;1.10;;;;;;;;;;6183287;23;20013;-47
2022/11/12 00:25:17;;;;;;;2.20;0.70;;;;;;;;;;6183873;23;20042;-47
2022/11/12 00:27:44;;;;;;;2.58;0.90;;;;;;;;;;6185199;23;20020;-45
2022/11/12 00:30:10;;;;;;;2.33;0.47;;;;;;;;;;6177752;23;20078;-46
2022/11/12 00:32:39;;;;;;;2.47;0.98;;;;;;;;;;6166418;23;20407;-47
2022/11/12 00:35:06;;;;;;;3.13;1.13;;;;;;;;;;6159551;23;20016;-47
2022/11/12 00:37:34;;;;;;;2.80;0.77;;;;;;;;;;6175160;23;20067;-46
2022/11/12 00:40:02;;;;;;;2.78;0.85;;;;;;;;;;6183915;23;20104;-46
2022/11/12 00:42:30;;;;;;;2.72;0.77;;;;;;;;;;6165413;23;20379;-45
2022/11/12 00:44:57;;;;;;;2.15;0.60;;;;;;;;;;6183672;23;20070;-46
2022/11/12 00:47:23;;;;;;;4.03;2.15;;;;;;;;;;6177488;23;20017;-45
2022/11/12 00:49:50;;;;;;;2.40;1.00;;;;;;;;;;6123653;23;20760;-46
2022/11/12 00:52:19;;;;;;;3.00;0.90;;;;;;;;;;6173057;23;20592;-49
2022/11/12 00:54:45;;;;;;;3.90;1.33;;;;;;;;;;6188570;23;20020;-45
2022/11/12 00:57:13;;;;;;;3.47;1.40;;;;;;;;;;6175203;23;20016;-46
2022/11/12 00:59:40;;;;;;;3.00;0.88;;;;;;;;;;6191498;23;20016;-46
2022/11/12 01:02:06;;;;;;;2.67;0.87;;;;;;;;;;6169495;23;20585;-46
2022/11/12 01:04:33;;;;;;;2.92;0.88;;;;;;;;;;6181473;23;20020;-46
2022/11/12 01:06:59;;;;;;;2.95;0.93;;;;;;;;;;6174847;23;20502;-48
2022/11/12 01:09:26;;;;;;;2.85;0.85;;;;;;;;;;6188980;23;20017;-47
2022/11/12 01:11:52;;;;;;;4.45;1.42;;;;;;;;;;6171265;23;20020;-48
2022/11/12 01:14:20;;;;;;;2.60;0.60;;;;;;;;;;6185153;23;20008;-47
2022/11/12 01:16:47;;;;;;;6.60;1.00;;;;;;;;;;6179890;23;20400;-46
2022/11/12 01:19:13;;;;;;;2.22;0.60;;;;;;;;;;6129956;23;20024;-46
2022/11/12 01:21:41;;;;;;;3.40;1.48;;;;;;;;;;6174002;23;20447;-47
2022/11/12 01:24:08;;;;;;;2.50;0.80;;;;;;;;;;6188901;23;20037;-48
2022/11/12 01:26:35;;;;;;;5.23;2.07;;;;;;;;;;6167024;23;20410;-46
2022/11/12 01:29:01;;;;;;;3.05;1.42;;;;;;;;;;6190218;23;20013;-48
2022/11/12 01:31:31;;;;;;;2.45;0.90;;;;;;;;;;6176547;23;20032;-50
2022/11/12 01:33:59;;;;;;;4.47;1.30;;;;;;;;;;6183126;23;20075;-46
2022/11/12 01:36:26;;;;;;;4.07;1.33;;;;;;;;;;6161707;23;20132;-48
2022/11/12 01:38:53;;;;;;;2.00;0.70;;;;;;;;;;6162150;23;20020;-48
2022/11/12 01:41:21;;;;;;;3.15;0.98;;;;;;;;;;6171782;23;20019;-46
2022/11/12 01:43:47;;;;;;;2.00;0.45;;;;;;;;;;6182103;23;20098;-46
2022/11/12 01:46:17;;;;;;;3.67;1.27;;;;;;;;;;6180666;23;20020;-46
2022/11/12 01:48:48;;;;;;;4.20;1.95;;;;;;;;;;6161566;23;20020;-45
2022/11/12 01:51:15;;;;;;;4.07;1.73;;;;;;;;;;6140196;23;20461;-47
2022/11/12 01:53:44;;;;;;;3.00;1.17;;;;;;;;;;6113759;23;20031;-47
2022/11/12 01:56:11;;;;;;;2.83;1.25;;;;;;;;;;6171923;23;20020;-46
2022/11/12 01:58:38;;;;;;;3.65;0.80;;;;;;;;;;6185572;23;20364;-46
2022/11/12 02:01:05;;;;;;;4.43;1.73;;;;;;;;;;6172717;23;20020;-46
2022/11/12 02:03:31;;;;;;;3.70;1.33;;;;;;;;;;6187061;23;20023;-50
2022/11/12 02:06:01;;;;;;;4.75;2.03;;;;;;;;;;6130295;23;20063;-47
2022/11/12 02:08:29;;;;;;;6.28;3.20;;;;;;;;;;6176576;23;20333;-45
2022/11/12 02:10:55;;;;;;;3.70;1.77;;;;;;;;;;6174948;23;20016;-49
2022/11/12 02:16:07;;;;;;;4.63;2.20;;;;;;;;;;6160026;23;20586;-50
2022/11/12 02:18:33;;;;;;;4.90;1.75;;;;;;;;;;6169872;23;20495;-49
2022/11/12 02:21:05;;;;;;;5.60;2.17;;;;;;;;;;6183826;23;20021;-50
2022/11/12 02:23:32;;;;;;;6.20;2.50;;;;;;;;;;6181523;23;20495;-46
2022/11/12 02:25:59;;;;;;;7.85;3.28;;;;;;;;;;6188950;23;20017;-45
2022/11/12 02:28:26;;;;;;;5.10;1.97;;;;;;;;;;6174741;23;20098;-45
2022/11/12 02:30:52;;;;;;;4.32;2.20;;;;;;;;;;6165303;23;20020;-53
2022/11/12 02:33:19;;;;;;;3.72;1.88;;;;;;;;;;6165540;23;20079;-46
2022/11/12 02:35:45;;;;;;;5.40;2.35;;;;;;;;;;6184812;23;20016;-45
2022/11/12 02:38:11;;;;;;;5.00;2.83;;;;;;;;;;6170791;23;20400;-49
2022/11/12 02:40:39;;;;;;;4.80;2.23;;;;;;;;;;6175137;23;20788;-48
2022/11/12 02:43:06;;;;;;;3.65;1.90;;;;;;;;;;6155500;23;20012;-45
2022/11/12 02:45:32;;;;;;;5.03;2.25;;;;;;;;;;6141098;23;20070;-48
2022/11/12 02:47:59;;;;;;;4.90;1.88;;;;;;;;;;6175344;23;20482;-45
2022/11/12 02:50:25;;;;;;;5.30;1.65;;;;;;;;;;6174880;23;20020;-47
2022/11/12 02:52:52;;;;;;;4.63;1.83;;;;;;;;;;6161241;23;20059;-48
2022/11/12 02:55:19;;;;;;;5.25;2.42;;;;;;;;;;6182311;23;20012;-47
2022/11/12 02:57:46;;;;;;;6.18;2.92;;;;;;;;;;6185777;23;20017;-47
2022/11/12 03:00:13;;;;;;;7.97;2.28;;;;;;;;;;6180227;23;20017;-45
2022/11/12 03:02:41;;;;;;;4.50;2.75;;;;;;;;;;6184191;23;20019;-46
2022/11/12 03:05:08;;;;;;;4.27;2.40;;;;;;;;;;6173611;23;20039;-46
2022/11/12 03:07:35;;;;;;;6.93;2.60;;;;;;;;;;6185002;23;20059;-48
2022/11/12 03:10:01;;;;;;;9.27;3.85;;;;;;;;;;6177841;23;21116;-45
2022/11/12 03:12:30;;;;;;;5.85;2.35;;;;;;;;;;6180785;23;20017;-47
2022/11/12 03:14:57;;;;;;;4.13;2.40;;;;;;;;;;6138828;23;20882;-45
2022/11/12 03:17:24;;;;;;;5.63;2.47;;;;;;;;;;6180321;23;20023;-48
2022/11/12 03:19:51;;;;;;;5.45;3.00;;;;;;;;;;6176538;23;20187;-47
2022/11/12 03:22:17;;;;;;;4.43;1.88;;;;;;;;;;6182753;23;20012;-49
2022/11/12 03:24:43;;;;;;;6.53;3.35;;;;;;;;;;6171184;23;20023;-45
2022/11/12 03:27:10;;;;;;;5.03;2.83;;;;;;;;;;6189376;23;20012;-45
2022/11/12 03:29:36;;;;;;;6.93;3.23;;;;;;;;;;6162212;23;20443;-50
2022/11/12 03:32:04;;;;;;;6.45;2.88;;;;;;;;;;6182298;23;20021;-46
2022/11/12 03:34:32;;;;;;;8.82;2.35;;;;;;;;;;6170871;23;20032;-45
2022/11/12 03:36:59;;;;;;;5.18;2.20;;;;;;;;;;6172447;23;20017;-47
2022/11/12 03:39:26;;;;;;;4.53;1.63;;;;;;;;;;6177795;23;20020;-45
2022/11/12 03:41:53;;;;;;;4.40;1.40;;;;;;;;;;6185392;23;20511;-46
2022/11/12 03:44:20;;;;;;;5.43;2.78;;;;;;;;;;6173511;23;20017;-46
2022/11/12 03:46:47;;;;;;;4.97;2.05;;;;;;;;;;6183028;23;20024;-44
2022/11/12 03:49:15;;;;;;;5.97;3.30;;;;;;;;;;6165960;23;20027;-45
2022/11/12 03:51:41;;;;;;;6.63;2.65;;;;;;;;;;6187151;23;20097;-47
2022/11/12 03:54:08;;;;;;;2.90;1.70;;;;;;;;;;6177209;23;20017;-45
2022/11/12 03:56:34;;;;;;;6.07;2.90;;;;;;;;;;6167089;23;20039;-46
2022/11/12 03:59:01;;;;;;;5.22;2.17;;;;;;;;;;6194254;23;20021;-47
2022/11/12 04:01:27;;;;;;;4.80;2.17;;;;;;;;;;6167287;23;20020;-46
2022/11/12 04:03:54;;;;;;;4.68;1.88;;;;;;;;;;6191947;23;20075;-45
2022/11/12 04:09:06;;;;;;;6.07;2.45;;;;;;;;;;6145660;23;20024;-46
2022/11/12 04:11:32;;;;;;;3.72;1.73;;;;;;;;;;6181029;23;20340;-44
2022/11/12 04:13:59;;;;;;;3.65;2.13;;;;;;;;;;6188037;23;20154;-45
2022/11/12 04:21:59;;;;;;;5.22;2.22;;;;;;;;;;6174927;23;20095;-45
2022/11/12 04:27:13;;;;;;;5.70;2.72;;;;;;;;;;6158111;23;20020;-44
2022/11/12 04:32:24;;;;;;;6.83;3.70;;;;;;;;;;6162287;23;20067;-44
2022/11/12 04:34:51;;;;;;;5.18;2.45;;;;;;;;;;6184171;23;20040;-47
2022/11/12 04:37:18;;;;;;;4.55;1.80;;;;;;;;;;6150972;23;20031;-47
2022/11/12 04:39:45;;;;;;;6.35;2.85;;;;;;;;;;6177996;23;20017;-44
2022/11/12 04:45:00;;;;;;;4.73;2.10;;;;;;;;;;6158537;23;20679;-45
2022/11/12 04:47:27;;;;;;;5.25;1.75;;;;;;;;;;6162121;23;20077;-46
2022/11/12 04:49:54;;;;;;;5.15;2.13;;;;;;;;;;6184328;23;20012;-44
2022/11/12 04:52:22;;;;;;;7.07;1.98;;;;;;;;;;6185392;23;20013;-45
2022/11/12 04:54:48;;;;;;;5.65;2.33;;;;;;;;;;6126520;23;20451;-44
2022/11/12 04:57:15;;;;;;;3.73;1.50;;;;;;;;;;6189476;23;20016;-45
2022/11/12 04:59:41;;;;;;;3.67;1.50;;;;;;;;;;6185515;23;20017;-45
2022/11/12 05:02:08;;;;;;;3.67;1.48;;;;;;;;;;6183307;23;20021;-44
2022/11/12 05:04:34;;;;;;;3.33;1.50;;;;;;;;;;6175510;23;20083;-45
2022/11/12 05:07:01;;;;;;;3.67;1.73;;;;;;;;;;6133307;23;20020;-45
2022/11/12 05:09:29;;;;;;;5.27;2.43;;;;;;;;;;6154401;23;20016;-45
2022/11/12 05:11:57;;;;;;;5.80;2.28;;;;;;;;;;6155114;23;20613;-46
2022/11/12 05:14:24;;;;;;;3.70;2.20;;;;;;;;;;6149448;23;20027;-45
2022/11/12 05:16:52;;;;;;;4.05;1.90;;;;;;;;;;6128805;23;20017;-45
2022/11/12 05:19:18;;;;;;;4.60;1.45;;;;;;;;;;6140546;23;20017;-47
2022/11/12 05:24:31;;;;;;;3.85;1.88;;;;;;;;;;6141968;23;20510;-45
2022/11/12 05:26:57;;;;;;;4.07;1.35;;;;;;;;;;6154606;23;20517;-48
2022/11/12 05:29:24;;;;;;;3.80;1.58;;;;;;;;;;6143844;23;20016;-47
2022/11/12 05:31:50;;;;;;;4.13;2.17;;;;;;;;;;6145304;23;20031;-47
2022/11/12 05:34:17;;;;;;;4.60;1.73;;;;;;;;;;6149183;23;20447;-47
2022/11/12 05:36:43;;;;;;;4.70;1.45;;;;;;;;;;6164352;23;20063;-51
2022/11/12 05:39:10;;;;;;;3.90;1.30;;;;;;;;;;6172979;23;20016;-51
2022/11/12 05:41:38;;;;;;;4.13;1.65;;;;;;;;;;6179240;23;20080;-49
2022/11/12 05:44:04;;;;;;;4.40;1.75;;;;;;;;;;6170910;23;20415;-47
2022/11/12 05:46:31;;;;;;;5.17;2.20;;;;;;;;;;6158491;23;20479;-46
2022/11/12 05:48:57;;;;;;;4.43;1.38;;;;;;;;;;6137508;23;20017;-48
2022/11/12 05:51:24;;;;;;;3.25;1.45;;;;;;;;;;6140943;23;20020;-46
2022/11/12 05:53:50;;;;;;;5.18;2.05;;;;;;;;;;6146609;23;20017;-46
2022/11/12 05:56:17;;;;;;;3.88;1.30;;;;;;;;;;6150175;23;20017;-46
2022/11/12 05:58:45;;;;;;;4.47;1.93;;;;;;;;;;6140400;23;20554;-46
2022/11/12 06:01:13;;;;;;;3.47;1.13;;;;;;;;;;6145936;23;20067;-46
2022/11/12 06:03:40;;;;;;;4.60;1.65;;;;;;;;;;6150905;23;20016;-45
2022/11/12 06:06:09;;;;;;;3.78;1.60;;;;;;;;;;6147163;23;20103;-45
2022/11/12 06:08:36;;;;;;;3.30;1.30;;;;;;;;;;6140091;23;20013;-49
2022/11/12 06:11:04;;;;;;;3.30;1.33;;;;;;;;;;6139684;23;20879;-46
2022/11/12 06:13:31;;;;;;;8.02;2.95;;;;;;;;;;6140007;23;20020;-47
2022/11/12 06:15:59;;;;;;;2.95;1.00;;;;;;;;;;6148351;23;20017;-46
2022/11/12 06:18:26;;;;;;;4.28;1.10;;;;;;;;;;6134852;23;20226;-46
2022/11/12 06:23:33;;;;;;;3.57;1.67;;;;;;;;;;6143556;23;20012;-45
2022/11/12 06:25:59;;;;;;;3.30;1.00;;;;;;;;;;6145361;23;20082;-45
2022/11/12 06:28:26;;;;;;;5.25;2.53;;;;;;;;;;6143264;23;20024;-50
2022/11/12 06:30:52;;;;;;;4.30;1.60;;;;;;;;;;6147400;23;20020;-45
2022/11/12 06:33:20;;;;;;;4.30;2.17;;;;;;;;;;6175268;23;20021;-45
2022/11/12 06:35:47;;;;;;;4.87;2.03;;;;;;;;;;6164089;23;20020;-45
2022/11/12 06:38:13;;;;;;;3.50;1.35;;;;;;;;;;6172866;23;20023;-49
2022/11/12 06:40:40;;;;;;;4.45;1.58;;;;;;;;;;6185235;23;20560;-46
2022/11/12 06:43:06;;;;;;;4.45;2.03;;;;;;;;;;6126476;23;20243;-47
2022/11/12 06:45:33;;;;;;;3.72;1.65;;;;;;;;;;6151607;23;20638;-46
2022/11/12 06:47:59;;;;;;;3.97;1.53;;;;;;;;;;6179723;23;20019;-45
2022/11/12 06:50:27;;;;;;;4.60;2.03;;;;;;;;;;6176148;23;20020;-46
2022/11/12 06:52:57;;;;;;;4.38;2.17;;;;;;;;;;6182580;23;20120;-46
2022/11/12 06:55:24;;;;;;;3.03;1.27;;;;;;;;;;6190236;23;20273;-45
2022/11/12 06:57:52;;;;;;;3.80;1.40;;;;;;;;;;6176940;23;20020;-48
2022/11/12 07:00:19;;;;;;;3.10;1.23;;;;;;;;;;6190600;23;20024;-46
2022/11/12 07:02:45;;;;;;;4.80;2.17;;;;;;;;;;6187208;23;20017;-48
2022/11/12 07:05:12;;;;;;;3.90;1.52;;;;;;;;;;6191290;23;20016;-46
2022/11/12 07:07:40;;;;;;;6.13;1.70;;;;;;;;;;6156528;23;20356;-46
2022/11/12 07:10:07;;;;;;;5.80;1.67;;;;;;;;;;6185869;23;20017;-46
2022/11/12 07:12:34;;;;;;;4.43;2.50;;;;;;;;;;6175491;23;20031;-47
2022/11/12 07:15:00;;;;;;;4.28;1.80;;;;;;;;;;6161590;23;20024;-49
2022/11/12 07:17:27;;;;;;;3.60;1.65;;;;;;;;;;6174315;23;20082;-49
2022/11/12 07:19:53;;;;;;;4.97;2.58;;;;;;;;;;6188401;23;20013;-45
2022/11/12 07:22:19;;;;;;;3.95;1.50;;;;;;;;;;6175470;23;20017;-46
2022/11/12 07:24:47;;;;;;;3.07;1.23;;;;;;;;;;6182039;23;20082;-51
2022/11/12 07:27:14;;;;;;;5.25;2.17;;;;;;;;;;6173762;23;20500;-46
2022/11/12 07:29:40;;;;;;;4.47;2.17;;;;;;;;;;6166185;23;20067;-47
2022/11/12 07:32:07;;;;;;;4.00;1.80;;;;;;;;;;6174837;23;20591;-46
2022/11/12 07:34:34;;;;;;;4.85;2.95;;;;;;;;;;6193025;23;20467;-46
2022/11/12 07:37:00;;;;;;;6.37;2.30;;;;;;;;;;6180299;23;20040;-45
2022/11/12 07:39:27;;;;;;;4.00;1.67;;;;;;;;;;6189287;23;20017;-46
2022/11/12 07:41:55;;;;;;;4.18;1.40;;;;;;;;;;6135367;23;20067;-49
2022/11/12 07:44:21;;;;;;;5.00;2.42;;;;;;;;;;6196053;23;20017;-48
2022/11/12 07:46:48;;;;;;;4.22;2.33;;;;;;;;;;6174755;23;20082;-47
2022/11/12 07:49:14;;;;;;;6.20;3.17;;;;;;;;;;6141804;23;20024;-47
2022/11/12 07:51:41;;;;;;;4.47;2.13;;;;;;;;;;6166769;23;20066;-47
2022/11/12 07:54:07;;;;;;;4.28;1.70;;;;;;;;;;6185607;23;20019;-48
2022/11/12 07:56:34;;;;;;;5.50;2.70;;;;;;;;;;6172778;23;20104;-47
2022/11/12 07:59:02;;;;;;;4.15;1.73;;;;;;;;;;6185141;23;20452;-49
2022/11/12 08:01:30;;;;;;;3.90;1.40;;;;;;;;;;6178463;23;20020;-45
2022/11/12 08:03:57;;;;;;;7.18;3.08;;;;;;;;;;6187510;23;20013;-45
2022/11/12 08:06:24;;;;;;;4.70;1.65;;;;;;;;;;6177943;23;20966;-48
2022/11/12 08:08:52;;;;;;;5.88;2.28;;;;;;;;;;6183871;23;20024;-47
2022/11/12 08:11:18;;;;;;;4.63;1.90;;;;;;;;;;6179379;23;20024;-49
2022/11/12 08:13:45;;;;;;;5.77;2.23;;;;;;;;;;6185669;23;20501;-46
2022/11/12 08:16:12;;;;;;;7.20;2.00;;;;;;;;;;6177088;23;20373;-46
2022/11/12 08:18:39;;;;;;;5.15;2.00;;;;;;;;;;6185771;23;20115;-46
2022/11/12 08:21:06;;;;;;;4.05;1.75;;;;;;;;;;6173164;23;20383;-46
2022/11/12 08:23:34;;;;;;;4.93;2.00;;;;;;;;;;6192403;23;20095;-46
2022/11/12 08:26:01;;;;;;;4.13;1.60;;;;;;;;;;6168062;23;20745;-48
2022/11/12 08:28:28;;;;;;;5.15;2.20;;;;;;;;;;6186256;23;20012;-45
2022/11/12 08:30:55;;;;;;;3.90;1.70;;;;;;;;;;6172884;23;20521;-46
2022/11/12 08:33:24;;;;;;;5.28;2.92;;;;;;;;;;6183723;23;20016;-49
2022/11/12 08:35:50;;;;;;;5.50;1.80;;;;;;;;;;6170379;23;20031;-45
2022/11/12 08:38:17;;;;;;;5.10;2.37;;;;;;;;;;6144497;23;20023;-48
2022/11/12 08:40:44;;;;;;;4.35;2.10;;;;;;;;;;6178774;23;20023;-45
2022/11/12 08:43:11;;;;;;;7.05;3.08;;;;;;;;;;6184764;23;20099;-46
2022/11/12 08:45:38;;;;;;;5.38;2.40;;;;;;;;;;6175242;23;20520;-47
2022/11/12 08:48:06;;;;;;;7.18;3.63;;;;;;;;;;6187394;23;20025;-46
2022/11/12 08:50:34;;;;;;;8.80;2.87;;;;;;;;;;6181559;23;20016;-46
2022/11/12 08:53:01;;;;;;;4.15;1.95;;;;;;;;;;6180321;23;20020;-46
2022/11/12 08:55:28;;;;;;;6.82;3.92;;;;;;;;;;6186342;23;20418;-46
2022/11/12 08:57:54;;;;;;;5.68;3.00;;;;;;;;;;6137042;23;20486;-47
2022/11/12 09:00:21;;;;;;;5.70;2.42;;;;;;;;;;6185317;23;20493;-48
2022/11/12 09:02:47;;;;;;;4.57;2.33;;;;;;;;;;6179808;23;20012;-49
2022/11/12 09:05:14;;;;;;;5.40;2.50;;;;;;;;;;6195706;23;20017;-46
2022/11/12 09:07:42;;;;;;;4.38;2.55;;;;;;;;;;6173289;23;20013;-48
2022/11/12 09:10:08;;;;;;;4.78;2.47;;;;;;;;;;6159507;23;20087;-49
2022/11/12 09:12:35;;;;;;;6.72;2.60;;;;;;;;;;6180565;23;20035;-46
2022/11/12 09:15:02;;;;;;;4.83;2.30;;;;;;;;;;6182079;23;20016;-46
2022/11/12 09:17:29;;;;;;;5.22;2.10;;;;;;;;;;6182696;23;20442;-47
2022/11/12 09:19:56;;;;;;;14.27;3.25;;;;;;;;;;6184179;23;20017;-45
2022/11/12 09:22:22;;;;;;;8.15;2.65;;;;;;;;;;6181184;23;20560;-47
2022/11/12 09:24:51;;;;;;;6.68;2.95;;;;;;;;;;6184171;23;20022;-51
2022/11/12 09:27:17;;;;;;;5.37;2.67;;;;;;;;;;6178156;23;20490;-50
2022/11/12 09:29:44;;;;;;;6.57;3.03;;;;;;;;;;6155786;23;20395;-49
2022/11/12 09:32:11;;;;;;;5.40;3.45;;;;;;;;;;6126680;23;20025;-49
2022/11/12 09:34:38;;;;;;;5.28;2.13;;;;;;;;;;6146831;23;20851;-46
2022/11/12 09:37:05;;;;;;;4.65;2.67;;;;;;;;;;6130058;23;20024;-47
2022/11/12 09:39:31;;;;;;;5.67;2.63;;;;;;;;;;6177151;23;20024;-50
2022/11/12 09:41:59;;;;;;;5.25;2.17;;;;;;;;;;6168828;23;20075;-47
2022/11/12 09:44:25;;;;;;;6.47;2.53;;;;;;;;;;6166818;23;20043;-47
2022/11/12 09:46:54;;;;;;;5.00;2.42;;;;;;;;;;6166348;23;20463;-47
2022/11/12 09:49:23;;;;;;;5.07;3.17;;;;;;;;;;6174008;23;20021;-50
2022/11/12 09:51:51;;;;;;;4.93;2.43;;;;;;;;;;6171324;23;20020;-47
2022/11/12 09:54:22;;;;;;;7.47;2.75;;;;;;;;;;6172523;23;20031;-45
2022/11/12 09:56:49;;;;;;;9.10;3.70;;;;;;;;;;6168607;23;20457;-49
2022/11/12 09:59:20;;;;;;;6.40;2.72;;;;;;;;;;6134278;23;20541;-48
2022/11/12 10:01:52;;;;;;;7.40;3.15;;;;;;;;;;6170463;23;20016;-47
2022/11/12 10:04:34;;;;;;;7.33;2.80;;;;;;;;;;6172825;23;20043;-49
2022/11/12 10:07:03;;;;;;;7.70;3.00;;;;;;;;;;6161100;23;20025;-47
2022/11/12 10:09:32;;;;;;;5.13;2.42;;;;;;;;;;6170354;23;20326;-48
2022/11/12 10:16:41;;;;;;;4.93;2.92;;;;;;;;;;6164211;23;20013;-50
2022/11/12 10:17:50;;;;;;;4.27;1.77;;;;;;;;;;6167994;23;20567;-50
2022/11/12 10:20:18;;;;;;;4.55;2.25;;;;;;;;;;6172440;23;20020;-49
2022/11/12 10:22:55;;;;;;;3.70;1.85;;;;;;;;;;6170636;23;20024;-46
2022/11/12 10:25:21;;;;;;;3.58;1.38;;;;;;;;;;6175113;23;20352;-50
2022/11/12 10:27:49;;;;;;;4.55;2.17;;;;;;;;;;6118916;23;20399;-48
2022/11/12 10:30:17;;;;;;;4.23;2.13;;;;;;;;;;6174495;23;20518;-45
2022/11/12 10:32:45;;;;;;;4.60;1.95;;;;;;;;;;6147950;23;20471;-46
2022/11/12 10:35:12;;;;;;;4.72;2.65;;;;;;;;;;6135504;23;20443;-45
2022/11/12 10:37:42;;;;;;;3.22;1.27;;;;;;;;;;6183934;23;20020;-47
2022/11/12 10:40:30;;;;;;;4.40;2.08;;;;;;;;;;6171984;23;20365;-46
2022/11/12 10:42:58;;;;;;;4.90;1.93;;;;;;;;;;6150972;23;20518;-48
2022/11/12 10:45:26;;;;;;;7.03;2.28;;;;;;;;;;6167457;23;20709;-47
2022/11/12 10:47:53;;;;;;;4.32;2.13;;;;;;;;;;6185464;23;20505;-46
2022/11/12 10:50:21;;;;;;;4.10;1.48;;;;;;;;;;6152714;23;20563;-47
2022/11/12 10:52:52;;;;;;;3.83;1.77;;;;;;;;;;6160081;23;20020;-46
2022/11/12 10:55:20;;;;;;;5.20;2.10;;;;;;;;;;6186470;23;20031;-46
2022/11/12 10:57:46;;;;;;;5.07;1.95;;;;;;;;;;6180445;23;20033;-46
2022/11/12 11:00:17;;;;;;;4.72;2.10;;;;;;;;;;6125587;23;20074;-47
2022/11/12 11:02:51;;;;;;;3.80;1.48;;;;;;;;;;6161386;23;20060;-45
2022/11/12 11:05:31;;;;;;;4.20;1.65;;;;;;;;;;6181282;23;20021;-47
2022/11/12 11:07:58;;;;;;;3.47;1.50;;;;;;;;;;6185604;23;20012;-45
2022/11/12 11:10:25;;;;;;;3.90;2.05;;;;;;;;;;6124007;23;20424;-48
2022/11/12 11:13:07;;;;;;;5.05;2.42;;;;;;;;;;6149944;23;20040;-45
2022/11/12 11:15:34;;;;;;;4.20;1.88;;;;;;;;;;6188569;23;20337;-47
2022/11/12 11:18:02;;;;;;;4.35;2.00;;;;;;;;;;6177717;23;20260;-45
2022/11/12 11:20:32;;;;;;;5.20;1.73;;;;;;;;;;6184901;23;20012;-46
2022/11/12 11:23:02;;;;;;;4.63;2.03;;;;;;;;;;6180655;23;20069;-49
2022/11/12 11:25:29;;;;;;;5.18;2.03;;;;;;;;;;6184496;23;20020;-45
2022/11/12 11:28:03;;;;;;;4.57;1.88;;;;;;;;;;6139851;23;20021;-46
2022/11/12 11:30:30;;;;;;;4.00;1.63;;;;;;;;;;6080529;23;20063;-47
2022/11/12 11:33:09;;;;;;;3.50;1.83;;;;;;;;;;6112941;23;20352;-48
2022/11/12 11:35:46;;;;;;;4.00;1.55;;;;;;;;;;6110877;23;20024;-46
2022/11/12 11:38:22;;;;;;;3.55;1.33;;;;;;;;;;6119941;23;20013;-46
2022/11/12 11:41:03;;;;;;;7.90;2.20;;;;;;;;;;6120898;23;20043;-48
2022/11/12 11:43:41;;;;;;;3.55;1.27;;;;;;;;;;6114550;23;20012;-45
2022/11/12 11:46:16;;;;;;;2.83;0.93;;;;;;;;;;6123234;23;20349;-47
2022/11/12 11:48:53;;;;;;;3.47;1.58;;;;;;;;;;6105329;23;20012;-48
2022/11/12 11:51:37;;;;;;;4.03;1.40;;;;;;;;;;6109044;23;20019;-44
2022/11/12 11:54:14;;;;;;;3.60;1.50;;;;;;;;;;6083503;23;20027;-45
2022/11/12 11:56:42;;;;;;;3.58;1.10;;;;;;;;;;6096524;23;20008;-50
2022/11/12 11:59:16;;;;;;;2.83;1.03;;;;;;;;;;6101884;23;20376;-45
2022/11/12 12:01:55;;;;;;;3.90;1.50;;;;;;;;;;6111630;23;20024;-45
2022/11/12 12:04:35;;;;;;;3.85;1.40;;;;;;;;;;6104993;23;20066;-46
2022/11/12 12:07:14;;;;;;;3.40;1.48;;;;;;;;;;6099878;23;20034;-45
2022/11/12 12:09:44;;;;;;;3.75;1.50;;;;;;;;;;6104680;23;20017;-45
2022/11/12 12:12:20;;;;;;;3.57;1.40;;;;;;;;;;6096980;23;20349;-47
2022/11/12 12:14:59;;;;;;;5.70;1.48;;;;;;;;;;6099644;23;20491;-46
2022/11/12 12:17:39;;;;;;;3.25;1.38;;;;;;;;;;6100588;23;20077;-48
2022/11/12 12:20:14;;;;;;;3.25;1.48;;;;;;;;;;6176188;23;20020;-47
2022/11/12 12:22:45;;;;;;;3.88;1.67;;;;;;;;;;6176426;23;20020;-48
2022/11/12 12:25:37;;;;;;;3.97;1.37;;;;;;;;;;6163076;23;20357;-46
2022/11/12 12:28:06;;;;;;;3.10;1.02;;;;;;;;;;6187500;23;20019;-50
2022/11/12 12:30:40;;;;;;;3.80;1.75;;;;;;;;;;6166073;23;20024;-46
2022/11/12 12:33:14;;;;;;;3.70;1.00;;;;;;;;;;6170762;23;20020;-49
2022/11/12 12:35:48;;;;;;;3.42;1.30;;;;;;;;;;6165749;23;20023;-45
2022/11/12 12:38:18;;;;;;;4.50;2.53;;;;;;;;;;6187703;23;20021;-46
2022/11/12 12:40:47;;;;;;;3.72;1.27;;;;;;;;;;6172969;23;20063;-47
2022/11/12 12:43:17;;;;;;;3.15;0.95;;;;;;;;;;6180033;23;20013;-49
2022/11/12 12:45:44;;;;;;;3.03;1.10;;;;;;;;;;6177886;23;20071;-48
2022/11/12 12:48:14;;;;;;;3.15;1.15;;;;;;;;;;6182738;23;20020;-46
2022/11/12 12:50:41;;;;;;;3.83;1.30;;;;;;;;;;6172281;23;20095;-45
2022/11/12 12:53:18;;;;;;;2.97;1.17;;;;;;;;;;6173271;23;20545;-47
2022/11/12 12:55:45;;;;;;;2.50;0.77;;;;;;;;;;6176790;23;20021;-45
2022/11/12 12:58:21;;;;;;;2.92;0.90;;;;;;;;;;6182430;23;20441;-44
2022/11/12 13:00:49;;;;;;;2.95;1.15;;;;;;;;;;6189105;23;20018;-47
2022/11/12 13:03:31;;;;;;;2.67;0.97;;;;;;;;;;6176991;23;20008;-47
2022/11/12 13:06:06;;;;;;;2.40;0.77;;;;;;;;;;6171020;23;20016;-47
2022/11/12 13:08:36;;;;;;;3.05;1.10;;;;;;;;;;6171475;23;20439;-46
2022/11/12 13:11:03;;;;;;;3.35;1.33;;;;;;;;;;6174182;23;20056;-45
2022/11/12 13:13:30;;;;;;;2.75;1.02;;;;;;;;;;6187291;23;20074;-45
2022/11/12 13:15:58;;;;;;;4.40;1.33;;;;;;;;;;6173119;23;20574;-47
2022/11/12 13:18:43;;;;;;;3.38;1.00;;;;;;;;;;6184444;23;20013;-48
2022/11/12 13:21:10;;;;;;;3.13;1.05;;;;;;;;;;6132967;23;20016;-50
2022/11/12 13:24:07;;;;;;;3.40;0.95;;;;;;;;;;6167974;23;20023;-47
2022/11/12 13:26:43;;;;;;;2.67;1.05;;;;;;;;;;6186958;23;20016;-48
2022/11/12 13:29:21;;;;;;;3.40;1.37;;;;;;;;;;6165951;23;20285;-45
2022/11/12 13:31:48;;;;;;;2.80;0.80;;;;;;;;;;6181913;23;20020;-46
2022/11/12 13:34:22;;;;;;;2.55;0.85;;;;;;;;;;6173551;23;20062;-45
2022/11/12 13:36:55;;;;;;;3.05;0.90;;;;;;;;;;6175335;23;20017;-47
2022/11/12 13:39:23;;;;;;;3.78;0.95;;;;;;;;;;6172911;23;20016;-45
2022/11/12 13:44:39;;;;;;;2.72;0.90;;;;;;;;;;6185828;23;20331;-47
2022/11/12 13:47:06;;;;;;;3.78;1.45;;;;;;;;;;6173602;23;20020;-46
2022/11/12 13:49:32;;;;;;;3.35;0.80;;;;;;;;;;6188791;23;20013;-45
2022/11/12 13:51:59;;;;;;;2.38;0.68;;;;;;;;;;6164471;23;20435;-47
2022/11/12 13:54:30;;;;;;;2.37;0.70;;;;;;;;;;6188776;23;20451;-46
2022/11/12 13:57:12;;;;;;;3.35;1.00;;;;;;;;;;6168560;23;20423;-45
2022/11/12 13:59:41;;;;;;;3.45;1.45;;;;;;;;;;6153197;23;20009;-47
2022/11/12 14:02:20;;;;;;;3.70;1.20;;;;;;;;;;6162959;23;20459;-44
2022/11/12 14:04:47;;;;;;;2.38;0.70;;;;;;;;;;6164142;23;20104;-44
2022/11/12 14:07:20;;;;;;;3.40;0.87;;;;;;;;;;6168285;23;20087;-47
2022/11/12 14:09:54;;;;;;;3.58;1.50;;;;;;;;;;6155412;23;20451;-44
2022/11/12 14:12:37;;;;;;;7.40;1.10;;;;;;;;;;6124237;23;20400;-45
2022/11/12 14:15:14;;;;;;;2.22;0.63;;;;;;;;;;6086383;23;20529;-45
2022/11/12 14:17:52;;;;;;;3.10;1.23;;;;;;;;;;6085121;23;20832;-45
2022/11/12 14:20:29;;;;;;;4.03;1.47;;;;;;;;;;6087706;23;20025;-46
2022/11/12 14:22:56;;;;;;;4.60;1.75;;;;;;;;;;6095608;23;20131;-47
2022/11/12 14:25:34;;;;;;;2.72;0.98;;;;;;;;;;6096996;23;20177;-47
2022/11/12 14:28:07;;;;;;;2.40;0.73;;;;;;;;;;6097173;23;20021;-48
2022/11/12 14:51:04;;;;;;;3.67;1.30;;;;;;;;;;6106604;23;20036;-47
2022/11/12 14:53:38;;;;;;;2.65;0.85;;;;;;;;;;6107370;23;20352;-47
2022/11/12 14:56:12;;;;;;;3.60;1.35;;;;;;;;;;6109824;23;20074;-45
2022/11/12 14:58:41;;;;;;;2.45;0.70;;;;;;;;;;6107167;23;20017;-47
2022/11/12 15:01:18;;;;;;;2.50;0.90;;;;;;;;;;6137858;23;20039;-46
2022/11/12 15:03:44;;;;;;;4.07;0.80;;;;;;;;;;6150809;23;20028;-48
2022/11/12 15:06:14;;;;;;;3.05;1.13;;;;;;;;;;6181439;23;20526;-47
2022/11/12 15:08:40;;;;;;;2.88;1.05;;;;;;;;;;6179102;23;20020;-46
2022/11/12 15:11:14;;;;;;;3.17;0.95;;;;;;;;;;6112915;23;20476;-46
2022/11/12 15:13:42;;;;;;;2.75;0.93;;;;;;;;;;6180158;23;20518;-48
2022/11/12 15:16:09;;;;;;;3.70;1.17;;;;;;;;;;6160118;23;20071;-47
2022/11/12 15:18:36;;;;;;;2.78;1.02;;;;;;;;;;6155898;23;20012;-44
2022/11/12 15:21:07;;;;;;;7.55;1.48;;;;;;;;;;6164351;23;20017;-44
2022/11/12 15:23:35;;;;;;;2.83;0.82;;;;;;;;;;6155055;23;20013;-46
2022/11/12 15:26:01;;;;;;;2.78;1.08;;;;;;;;;;6175843;23;20028;-49
2022/11/12 15:28:28;;;;;;;2.93;0.90;;;;;;;;;;6183654;23;20478;-49
2022/11/12 15:31:01;;;;;;;2.92;1.10;;;;;;;;;;6163426;23;20017;-45
2022/11/12 15:33:28;;;;;;;2.90;0.73;;;;;;;;;;6171550;23;20096;-45
2022/11/12 15:35:58;;;;;;;4.03;1.60;;;;;;;;;;6168023;23;20021;-49
2022/11/12 15:38:26;;;;;;;3.05;1.20;;;;;;;;;;6172015;23;20391;-46
2022/11/12 15:40:55;;;;;;;3.27;1.10;;;;;;;;;;6155887;23;20020;-49
2022/11/12 15:43:23;;;;;;;2.63;0.95;;;;;;;;;;6146833;23;20103;-45